Time;durP1;ratioP1;P1;durP2;ratioP2;P2;SDS_P1;SDS_P2;PMS_P1;PMS_P2;Temp;Humidity;BMP_temperature;BMP_pressure;BME280_temperature;BME280_humidity;BME280_pressure;Samples;Min_cycle;Max_cycle;Signal;HPM_P1;HPM_P2
2022/04/02 00:01:28;;;;;;;;;;;;;;;16.40;41.48;101820.88;6292957;22;19907;-80
2022/04/02 00:03:54;;;;;;;;;;;;;;;16.41;41.48;101824.34;6266253;22;19912;-80
2022/04/02 00:06:19;;;;;;;;;;;;;;;16.40;41.35;101820.88;6267068;22;19937;-80
2022/04/02 00:08:44;;;;;;;;;;;;;;;16.40;41.41;101814.81;6294069;22;19907;-80
2022/04/02 00:11:10;;;;;;;;;;;;;;;16.39;41.39;101819.13;6266776;22;19915;-80
2022/04/02 00:13:36;;;;;;;;;;;;;;;16.39;41.41;101818.25;6267794;22;19911;-79
2022/04/02 00:16:02;;;;;;;;;;;;;;;16.39;41.37;101824.31;6265756;22;19930;-79
2022/04/02 00:18:29;;;;;;;;;;;;;;;16.39;41.36;101821.72;6292627;22;20386;-79
2022/04/02 00:20:54;;;;;;;;;;;;;;;16.38;41.32;101817.38;6266091;22;19985;-79
2022/04/02 00:26:04;;;;;;;;;;;;;;;16.37;41.19;101818.22;6289073;22;19914;-79
2022/04/02 00:28:30;;;;;;;;;;;;;;;16.37;41.45;101819.97;6261337;22;19912;-79
2022/04/02 00:30:55;;;;;;;;;;;;;;;16.37;41.46;101819.97;6260030;22;20288;-79
2022/04/02 00:33:20;;;;;;;;;;;;;;;16.37;41.25;101819.97;6259181;22;19911;-79
2022/04/02 00:35:45;;;;;;;;;;;;;;;16.37;41.46;101819.97;6285332;22;19912;-79
2022/04/02 00:38:11;;;;;;;;;;;;;;;16.36;41.16;101818.22;6284358;22;20387;-80
2022/04/02 00:40:37;;;;;;;;;;;;;;;16.35;41.44;101814.78;6259715;22;19933;-80
2022/04/02 00:43:03;;;;;;;;;;;;;;;16.35;41.46;101809.56;6261334;22;19919;-80
2022/04/02 00:45:28;;;;;;;;;;;;;;;16.35;41.47;101814.78;6238613;22;19911;-79
2022/04/02 00:47:53;;;;;;;;;;;;;;;16.35;41.38;101806.97;6286265;22;19963;-79
2022/04/02 00:50:19;;;;;;;;;;;;;;;16.34;41.35;101809.56;6285805;22;19914;-79
2022/04/02 00:52:44;;;;;;;;;;;;;;;16.33;41.41;101808.69;6259743;22;19989;-79
2022/04/02 00:55:09;;;;;;;;;;;;;;;16.33;41.48;101810.38;6261121;22;19915;-79
2022/04/02 00:57:35;;;;;;;;;;;;;;;16.33;41.39;101816.47;6263406;22;20347;-79
2022/04/02 01:00:00;;;;;;;;;;;;;;;16.33;41.47;101819.06;6261090;22;19911;-79
2022/04/02 01:02:26;;;;;;;;;;;;;;;16.34;41.35;101822.53;6261048;22;19908;-79
2022/04/02 01:04:51;;;;;;;;;;;;;;;16.32;41.48;101825.09;6259702;22;19919;-79
2022/04/02 01:07:18;;;;;;;;;;;;;;;16.32;41.30;101830.31;6259333;22;19915;-79
2022/04/02 01:09:43;;;;;;;;;;;;;;;16.32;41.45;101830.31;6258850;22;19911;-79
2022/04/02 01:12:08;;;;;;;;;;;;;;;16.32;41.36;101832.03;6258936;22;19912;-79
2022/04/02 01:14:33;;;;;;;;;;;;;;;16.32;41.43;101827.72;6284460;22;19911;-79
2022/04/02 01:17:01;;;;;;;;;;;;;;;16.32;41.38;101829.44;6259670;22;19911;-79
2022/04/02 01:19:26;;;;;;;;;;;;;;;16.30;41.33;101829.41;6260197;22;19915;-79
2022/04/02 01:21:52;;;;;;;;;;;;;;;16.31;41.15;101825.09;6285557;22;19922;-79
2022/04/02 01:24:17;;;;;;;;;;;;;;;16.31;41.28;101832.88;6285411;22;19953;-79
2022/04/02 01:26:43;;;;;;;;;;;;;;;16.30;41.36;101837.22;6261464;22;20297;-79
2022/04/02 01:29:08;;;;;;;;;;;;;;;16.29;41.46;101838.06;6259857;22;19911;-79
2022/04/02 01:31:33;;;;;;;;;;;;;;;16.29;41.41;101835.47;6259201;22;19996;-79
2022/04/02 01:33:59;;;;;;;;;;;;;;;16.29;41.24;101830.28;6285242;22;19907;-79
2022/04/02 01:36:24;;;;;;;;;;;;;;;16.28;41.42;101830.25;6258513;22;19907;-79
2022/04/02 01:38:50;;;;;;;;;;;;;;;16.27;41.25;101829.38;6286667;22;19975;-79
2022/04/02 01:41:15;;;;;;;;;;;;;;;16.27;41.28;101824.19;6259728;22;19918;-79
2022/04/02 01:43:41;;;;;;;;;;;;;;;16.28;41.22;101828.53;6284957;22;19922;-79
2022/04/02 01:46:07;;;;;;;;;;;;;;;16.28;41.30;101827.66;6260162;22;19930;-80
2022/04/02 01:48:32;;;;;;;;;;;;;;;16.26;41.44;101832.81;6287358;22;19914;-80
2022/04/02 01:50:58;;;;;;;;;;;;;;;16.27;41.26;101833.72;6288099;22;19907;-80
2022/04/02 01:53:24;;;;;;;;;;;;;;;16.25;41.28;101837.16;6291661;22;19908;-80
2022/04/02 01:55:50;;;;;;;;;;;;;;;16.26;41.19;101832.81;6291881;22;19907;-80
2022/04/02 01:58:16;;;;;;;;;;;;;;;16.25;41.47;101834.56;6238320;22;19953;-79
2022/04/02 02:00:41;;;;;;;;;;;;;;;16.25;41.38;101838.88;6291679;22;19990;-79
2022/04/02 02:03:06;;;;;;;;;;;;;;;16.26;41.45;101835.41;6264650;22;19930;-79
2022/04/02 02:05:32;;;;;;;;;;;;;;;16.24;41.17;101830.22;6263729;22;19911;-80
2022/04/02 02:07:57;;;;;;;;;;;;;;;16.24;41.39;101830.22;6289926;22;19934;-79
2022/04/02 02:10:23;;;;;;;;;;;;;;;16.24;41.37;101831.94;6263330;22;19915;-79
2022/04/02 02:12:48;;;;;;;;;;;;;;;16.24;41.37;101834.53;6263345;22;20017;-79
2022/04/02 02:15:16;;;;;;;;;;;;;;;16.23;41.23;101831.06;6263934;22;19911;-80
2022/04/02 02:17:48;;;;;;;;;;;;;;;16.24;41.38;101827.63;6264339;22;19911;-80
2022/04/02 02:20:15;;;;;;;;;;;;;;;16.22;41.33;101826.75;6290477;22;19929;-80
2022/04/02 02:22:40;;;;;;;;;;;;;;;16.22;41.46;101831.94;6237957;22;19911;-80
2022/04/02 02:25:11;;;;;;;;;;;;;;;16.22;41.45;101829.34;6263283;22;20010;-80
2022/04/02 02:27:37;;;;;;;;;;;;;;;16.21;41.47;101835.38;6237158;22;19926;-79
2022/04/02 02:30:03;;;;;;;;;;;;;;;16.22;41.52;101833.63;6288786;22;19939;-80
2022/04/02 02:32:31;;;;;;;;;;;;;;;16.21;41.38;101824.13;6262688;22;19918;-79
2022/04/02 02:38:08;;;;;;;;;;;;;;;16.21;41.58;101829.31;6197619;23;19979;-80
2022/04/02 02:40:33;;;;;;;;;;;;;;;16.20;41.41;101833.63;6171373;23;19938;-79
2022/04/02 02:42:58;;;;;;;;;;;;;;;16.20;41.42;101832.75;6213870;22;19907;-79
2022/04/02 02:45:24;;;;;;;;;;;;;;;16.20;41.43;101830.16;6263689;22;19963;-79
2022/04/02 02:47:49;;;;;;;;;;;;;;;16.19;41.41;101842.28;6263353;22;19911;-80
2022/04/02 02:50:14;;;;;;;;;;;;;;;16.19;41.42;101836.22;6292851;22;19911;-79
2022/04/02 02:52:40;;;;;;;;;;;;;;;16.19;41.41;101837.06;6264362;22;19998;-80
2022/04/02 02:55:05;;;;;;;;;;;;;;;16.20;41.15;101837.94;6262910;22;19911;-79
2022/04/02 02:57:36;;;;;;;;;;;;;;;16.18;41.45;101834.47;6264462;22;19965;-80
2022/04/02 03:00:02;;;;;;;;;;;;;;;16.19;41.20;101836.22;6265494;22;19912;-80
2022/04/02 03:02:28;;;;;;;;;;;;;;;16.18;41.26;101842.28;6240902;22;19989;-80
2022/04/02 03:04:53;;;;;;;;;;;;;;;16.18;41.41;101842.28;6293223;22;19918;-80
2022/04/02 03:07:18;;;;;;;;;;;;;;;16.17;41.48;101843.97;6293152;22;19911;-80
2022/04/02 03:09:43;;;;;;;;;;;;;;;16.18;41.49;101847.47;6266177;22;19911;-79
2022/04/02 03:12:11;;;;;;;;;;;;;;;16.17;41.41;101843.97;6265941;22;19963;-80
2022/04/02 03:14:36;;;;;;;;;;;;;;;16.18;41.45;101839.69;6291843;22;19955;-79
2022/04/02 03:17:02;;;;;;;;;;;;;;;16.16;41.13;101839.66;6292735;22;20205;-80
2022/04/02 03:19:27;;;;;;;;;;;;;;;16.16;41.33;101842.25;6265159;22;19918;-80
2022/04/02 03:21:52;;;;;;;;;;;;;;;16.17;41.51;101837.91;6290930;22;19981;-80
2022/04/02 03:24:17;;;;;;;;;;;;;;;16.16;41.24;101839.66;6265568;22;19912;-79
2022/04/02 03:26:43;;;;;;;;;;;;;;;16.16;41.35;101841.38;6291995;22;19912;-80
2022/04/02 03:29:08;;;;;;;;;;;;;;;16.16;41.45;101843.97;6264338;22;19919;-79
2022/04/02 03:31:33;;;;;;;;;;;;;;;16.15;41.41;101845.69;6262453;22;19935;-79
2022/04/02 03:33:58;;;;;;;;;;;;;;;16.15;41.47;101844.81;6264847;22;19912;-79
2022/04/02 03:36:24;;;;;;;;;;;;;;;16.14;41.30;101846.53;6262531;22;19933;-79
2022/04/02 03:38:49;;;;;;;;;;;;;;;16.15;41.55;101844.81;6262573;22;19967;-79
2022/04/02 03:41:14;;;;;;;;;;;;;;;16.14;41.47;101843.09;6261547;22;19982;-79
2022/04/02 03:43:40;;;;;;;;;;;;;;;16.14;41.46;101845.69;6262706;22;19911;-79
2022/04/02 03:48:49;;;;;;;;;;;;;;;16.13;41.47;101841.31;6267505;22;20342;-79
2022/04/02 03:51:14;;;;;;;;;;;;;;;16.12;41.28;101843.06;6290634;22;19916;-79
2022/04/02 03:53:39;;;;;;;;;;;;;;;16.12;41.44;101847.38;6264518;22;19911;-79
2022/04/02 03:56:07;;;;;;;;;;;;;;;16.12;41.50;101840.47;6263902;22;19918;-80
2022/04/02 03:58:32;;;;;;;;;;;;;;;16.11;41.25;101848.22;6289472;22;20327;-79
2022/04/02 04:00:58;;;;;;;;;;;;;;;16.11;41.50;101845.63;6263462;22;19941;-79
2022/04/02 04:03:23;;;;;;;;;;;;;;;16.11;41.60;101845.63;6264515;22;19911;-79
2022/04/02 04:05:48;;;;;;;;;;;;;;;16.10;41.39;101849.94;6264537;22;19918;-79
2022/04/02 04:08:14;;;;;;;;;;;;;;;16.11;41.28;101856.00;6264543;22;19908;-79
2022/04/02 04:10:39;;;;;;;;;;;;;;;16.09;41.55;101853.41;6288726;22;19911;-79
2022/04/02 04:13:05;;;;;;;;;;;;;;;16.10;41.57;101857.75;6263671;22;19963;-79
2022/04/02 04:15:30;;;;;;;;;;;;;;;16.10;41.45;101859.47;6265960;22;19912;-79
2022/04/02 04:17:57;;;;;;;;;;;;;;;16.09;41.53;101862.91;6262259;22;19998;-79
2022/04/02 04:20:22;;;;;;;;;;;;;;;16.08;41.40;101862.03;6288112;22;19911;-79
2022/04/02 04:22:47;;;;;;;;;;;;;;;16.08;41.36;101858.59;6262309;22;19912;-79
2022/04/02 04:25:12;;;;;;;;;;;;;;;16.07;41.47;101862.91;6262370;22;19911;-79
2022/04/02 04:27:38;;;;;;;;;;;;;;;16.07;41.40;101870.69;6261398;22;19959;-79
2022/04/02 04:30:04;;;;;;;;;;;;;;;16.07;41.46;101872.41;6262302;22;20324;-79
2022/04/02 04:32:30;;;;;;;;;;;;;;;16.08;41.57;101879.34;6261388;22;20633;-79
2022/04/02 04:34:55;;;;;;;;;;;;;;;16.07;41.26;101877.59;6262506;22;20399;-79
2022/04/02 04:37:20;;;;;;;;;;;;;;;16.07;41.54;101882.78;6287965;22;19907;-79
2022/04/02 04:39:45;;;;;;;;;;;;;;;16.06;41.48;101881.06;6261658;22;19911;-79
2022/04/02 04:42:12;;;;;;;;;;;;;;;16.06;41.56;101883.66;6262625;22;19923;-79
2022/04/02 04:44:37;;;;;;;;;;;;;;;16.06;41.54;101888.84;6262788;22;19946;-79
2022/04/02 04:47:02;;;;;;;;;;;;;;;16.06;41.55;101892.31;6287355;22;19918;-79
2022/04/02 04:49:27;;;;;;;;;;;;;;;16.04;41.57;101897.47;6289514;22;19907;-79
2022/04/02 04:51:53;;;;;;;;;;;;;;;16.04;41.29;101896.59;6260218;22;19915;-79
2022/04/02 04:54:18;;;;;;;;;;;;;;;16.03;41.49;101900.94;6261930;22;20407;-80
2022/04/02 04:56:43;;;;;;;;;;;;;;;16.02;41.29;101904.34;6267803;22;19911;-80
2022/04/02 04:59:09;;;;;;;;;;;;;;;16.02;41.27;101903.50;6263971;22;19918;-80
2022/04/02 05:01:35;;;;;;;;;;;;;;;16.02;41.49;101904.34;6258818;22;19961;-80
2022/04/02 05:04:00;;;;;;;;;;;;;;;16.01;41.31;101902.63;6259438;22;19907;-80
2022/04/02 05:06:26;;;;;;;;;;;;;;;16.02;41.35;101914.75;6288751;22;19911;-80
2022/04/02 05:08:51;;;;;;;;;;;;;;;16.01;41.19;101913.00;6290247;22;19935;-80
2022/04/02 05:11:16;;;;;;;;;;;;;;;16.01;41.30;101913.00;6261712;22;19915;-80
2022/04/02 05:13:42;;;;;;;;;;;;;;;16.01;41.27;101919.94;6253205;22;19918;-79
2022/04/02 05:16:08;;;;;;;;;;;;;;;16.00;41.37;101918.19;6252256;22;19919;-79
2022/04/02 05:18:34;;;;;;;;;;;;;;;16.01;41.39;101922.53;6226914;22;19947;-79
2022/04/02 05:21:02;;;;;;;;;;;;;;;15.99;41.17;101919.91;6251435;22;19961;-79
2022/04/02 05:23:27;;;;;;;;;;;;;;;16.00;41.40;101920.78;6252830;22;19911;-79
2022/04/02 05:25:52;;;;;;;;;;;;;;;15.99;41.44;101924.25;6277184;22;20324;-79
2022/04/02 05:28:17;;;;;;;;;;;;;;;15.99;41.37;101921.63;6278640;22;20235;-79
2022/04/02 05:30:42;;;;;;;;;;;;;;;15.99;41.20;101919.91;6245907;23;19919;-79
2022/04/02 05:33:08;;;;;;;;;;;;;;;15.99;41.24;101927.69;6247053;23;20248;-79
2022/04/02 05:35:33;;;;;;;;;;;;;;;15.98;41.37;101931.16;6247083;23;20244;-79
2022/04/02 05:37:58;;;;;;;;;;;;;;;15.99;41.46;101942.41;6246328;23;20355;-79
2022/04/02 05:40:24;;;;;;;;;;;;;;;15.99;41.21;101948.47;6247921;23;19915;-80
2022/04/02 05:42:49;;;;;;;;;;;;;;;15.98;41.33;101946.75;6246379;23;20395;-80
2022/04/02 05:45:15;;;;;;;;;;;;;;;15.99;41.15;101948.47;6245552;23;19939;-79
2022/04/02 05:47:50;;;;;;;;;;;;;;;15.99;41.28;101945.00;6246143;23;19919;-79
2022/04/02 05:50:16;;;;;;;;;;;;;;;15.99;41.22;101950.19;6246474;23;19908;-79
2022/04/02 05:52:41;;;;;;;;;;;;;;;16.00;41.24;101951.94;6220748;23;19998;-79
2022/04/02 05:55:07;;;;;;;;;;;;;;;15.99;41.15;101947.59;6246217;23;20339;-79
2022/04/02 05:57:33;;;;;;;;;;;;;;;15.99;41.36;101948.47;6220893;23;19911;-79
2022/04/02 05:59:59;;;;;;;;;;;;;;;16.00;41.20;101951.94;6246300;23;19990;-79
2022/04/02 06:02:24;;;;;;;;;;;;;;;16.00;41.27;101946.75;6252440;23;19938;-79
2022/04/02 06:04:49;;;;;;;;;;;;;;;16.01;41.06;101953.69;6275433;22;19914;-79
2022/04/02 06:07:14;;;;;;;;;;;;;;;16.01;41.27;101966.66;6249790;23;19919;-79
2022/04/02 06:09:40;;;;;;;;;;;;;;;16.02;41.22;101969.28;6246769;23;19934;-79
2022/04/02 06:12:05;;;;;;;;;;;;;;;16.03;41.31;101970.16;6271925;22;19912;-79
2022/04/02 06:14:30;;;;;;;;;;;;;;;16.05;41.44;101971.06;6221674;23;19951;-79
2022/04/02 06:16:55;;;;;;;;;;;;;;;16.07;41.28;101968.47;6271859;22;19912;-79
2022/04/02 06:19:21;;;;;;;;;;;;;;;16.10;41.37;101977.19;6272196;22;19930;-79
2022/04/02 06:21:46;;;;;;;;;;;;;;;16.14;41.15;101981.59;6246835;23;19912;-80
2022/04/02 06:24:18;;;;;;;;;;;;;;;16.20;41.10;101983.38;6256532;22;19930;-81
2022/04/02 06:26:43;;;;;;;;;;;;;;;16.28;41.26;101988.69;6258498;22;19908;-80
2022/04/02 06:29:08;;;;;;;;;;;;;;;16.36;41.18;101984.50;6258958;22;20334;-79
2022/04/02 06:31:34;;;;;;;;;;;;;;;16.44;41.25;101988.06;6291930;22;19903;-80
2022/04/02 06:33:59;;;;;;;;;;;;;;;16.50;41.08;101995.06;6254858;22;19922;-80
2022/04/02 06:36:24;;;;;;;;;;;;;;;16.54;41.19;101989.06;6253397;22;20316;-80
2022/04/02 06:38:50;;;;;;;;;;;;;;;16.56;40.92;101996.00;6252355;22;19915;-80
2022/04/02 06:41:15;;;;;;;;;;;;;;;16.55;41.03;102002.06;6251981;22;19922;-80
2022/04/02 06:43:40;;;;;;;;;;;;;;;16.54;41.05;102004.63;6253906;22;19918;-80
2022/04/02 06:46:05;;;;;;;;;;;;;;;16.58;41.09;102003.84;6252899;22;20374;-80
2022/04/02 06:48:31;;;;;;;;;;;;;;;16.62;41.15;102003.88;6252445;22;19941;-80
2022/04/02 06:50:56;;;;;;;;;;;;;;;16.69;41.19;102014.38;6277009;22;20285;-80
2022/04/02 06:53:21;;;;;;;;;;;;;;;16.76;41.14;102016.19;6257452;22;20312;-81
2022/04/02 06:55:47;;;;;;;;;;;;;;;16.83;40.87;102021.53;6293523;22;19930;-81
2022/04/02 06:58:29;;;;;;;;;;;;;;;16.89;40.91;102018.13;6273343;22;19896;-80
2022/04/02 07:00:54;;;;;;;;;;;;;;;16.97;40.68;102023.41;6296456;22;19942;-80
2022/04/02 07:03:19;;;;;;;;;;;;;;;17.02;40.63;102027.81;6253273;22;19969;-80
2022/04/02 07:05:44;;;;;;;;;;;;;;;17.07;40.56;102033.06;6253557;22;19911;-80
2022/04/02 07:08:10;;;;;;;;;;;;;;;17.10;40.54;102035.72;6263623;22;19986;-80
2022/04/02 07:10:35;;;;;;;;;;;;;;;17.11;40.44;102039.19;6279530;22;20335;-80
2022/04/02 07:13:00;;;;;;;;;;;;;;;17.14;40.27;102042.69;6277931;22;19938;-80
2022/04/02 07:15:25;;;;;;;;;;;;;;;17.18;40.57;102046.19;6277580;22;19911;-80
2022/04/02 07:17:50;;;;;;;;;;;;;;;17.24;40.45;102051.47;6250992;22;19916;-79
2022/04/02 07:20:18;;;;;;;;;;;;;;;17.27;40.28;102052.38;6251195;22;19931;-80
2022/04/02 07:22:43;;;;;;;;;;;;;;;17.32;40.10;102048.97;6250971;22;20308;-80
2022/04/02 07:25:09;;;;;;;;;;;;;;;17.35;40.19;102056.78;6251032;22;19953;-80
2022/04/02 07:27:36;;;;;;;;;;;;;;;17.37;40.08;102055.94;6252306;22;19937;-80
2022/04/02 07:30:02;;;;;;;;;;;;;;;17.39;40.13;102054.22;6280029;22;19919;-80
2022/04/02 07:32:27;;;;;;;;;;;;;;;17.43;40.05;102062.94;6278687;22;20216;-80
2022/04/02 07:34:53;;;;;;;;;;;;;;;17.45;40.14;102056.03;6253384;22;19911;-80
2022/04/02 07:37:37;;;;;;;;;;;;;;;17.46;40.01;102060.38;6253121;22;19912;-80
2022/04/02 07:40:02;;;;;;;;;;;;;;;17.46;39.95;102069.06;6278605;22;19907;-81
2022/04/02 07:42:36;;;;;;;;;;;;;;;17.47;40.06;102078.63;6283557;22;19908;-80
2022/04/02 07:45:13;;;;;;;;;;;;;;;17.52;39.92;102069.97;6255160;22;19926;-79
2022/04/02 07:47:42;;;;;;;;;;;;;;;17.58;39.85;102076.13;6253257;22;19934;-78
2022/04/02 07:50:13;;;;;;;;;;;;;;;17.63;39.89;102086.56;6253499;22;19907;-78
2022/04/02 07:52:42;;;;;;;;;;;;;;;17.72;39.78;102088.41;6252053;22;19911;-77
2022/04/02 07:55:07;;;;;;;;;;;;;;;17.74;39.73;102079.75;6253096;22;19907;-78
2022/04/02 07:57:37;;;;;;;;;;;;;;;17.77;39.82;102086.69;6228016;22;19916;-78
2022/04/02 08:00:04;;;;;;;;;;;;;;;17.67;39.79;102085.75;6253636;22;19942;-78
2022/04/02 08:02:36;;;;;;;;;;;;;;;17.66;39.86;102086.63;6256256;22;19914;-79
2022/04/02 08:05:02;;;;;;;;;;;;;;;17.56;40.09;102087.38;6253826;22;19943;-79
2022/04/02 08:07:31;;;;;;;;;;;;;;;17.58;39.92;102089.13;6252902;22;19915;-79
2022/04/02 08:10:01;;;;;;;;;;;;;;;17.45;40.14;102087.25;6253002;22;19918;-79
2022/04/02 08:12:27;;;;;;;;;;;;;;;17.35;40.05;102083.66;6252676;22;19911;-79
2022/04/02 08:14:53;;;;;;;;;;;;;;;17.27;40.16;102088.81;6278772;22;19921;-79
2022/04/02 08:17:19;;;;;;;;;;;;;;;17.20;40.10;102088.69;6252869;22;19907;-78
2022/04/02 08:19:45;;;;;;;;;;;;;;;17.19;40.15;102094.78;6255032;22;20271;-79
2022/04/02 08:22:10;;;;;;;;;;;;;;;17.25;40.12;102094.84;6278722;22;20010;-79
2022/04/02 08:24:36;;;;;;;;;;;;;;;17.26;40.16;102094.84;6254238;22;19907;-80
2022/04/02 08:27:02;;;;;;;;;;;;;;;17.22;40.22;102102.59;6253316;22;19912;-79
2022/04/02 08:29:27;;;;;;;;;;;;;;;17.15;40.02;102104.25;6252003;22;20232;-79
2022/04/02 08:31:54;;;;;;;;;;;;;;;17.14;40.26;102106.84;6280186;22;19915;-79
2022/04/02 08:34:39;;;;;;;;;;;;;;;17.11;40.09;102102.47;6278639;22;20247;-79
2022/04/02 08:37:05;;;;;;;;;;;;;;;17.15;40.33;102101.66;6278593;22;19907;-78
2022/04/02 08:39:50;;;;;;;;;;;;;;;17.11;40.12;102115.47;6281615;22;19914;-81
2022/04/02 08:42:42;;;;;;;;;;;;;;;17.11;40.21;102107.66;6259181;22;19914;-81
2022/04/02 08:45:11;;;;;;;;;;;;;;;17.18;40.16;102116.41;6251661;22;19923;-80
2022/04/02 08:50:45;;;;;;;;;;;;;;;17.24;40.00;102114.75;6287546;22;19976;-81
2022/04/02 08:53:17;;;;;;;;;;;;;;;17.25;39.83;102120.88;6265151;22;19911;-80
2022/04/02 08:56:09;;;;;;;;;;;;;;;17.24;40.19;102117.38;6287164;22;19907;-79
2022/04/02 08:58:34;;;;;;;;;;;;;;;17.26;39.99;102112.19;6251868;22;19925;-79
2022/04/02 09:01:02;;;;;;;;;;;;;;;17.24;39.68;102117.38;6282202;22;19950;-79
2022/04/02 09:03:47;;;;;;;;;;;;;;;17.22;39.86;102118.22;6279917;22;19907;-79
2022/04/02 09:06:30;;;;;;;;;;;;;;;17.20;39.82;102126.00;6279643;22;19957;-78
2022/04/02 09:08:55;;;;;;;;;;;;;;;17.17;39.77;102135.50;6280050;22;19931;-79
2022/04/02 09:11:25;;;;;;;;;;;;;;;17.18;39.72;102132.91;6280447;22;19922;-79
2022/04/02 09:14:00;;;;;;;;;;;;;;;17.27;39.81;102139.97;6257047;22;19907;-79
2022/04/02 09:16:27;;;;;;;;;;;;;;;17.37;39.65;102139.22;6289742;22;19954;-81
2022/04/02 09:18:53;;;;;;;;;;;;;;;17.33;39.64;102145.22;6292442;22;19927;-80
2022/04/02 09:21:28;;;;;;;;;;;;;;;17.27;40.35;102145.19;6285248;22;19908;-78
2022/04/02 09:27:18;;;;;;;;;;;;;;;17.45;41.78;102144.50;6305092;22;19906;-86
2022/04/02 10:44:39;;;;;;;;;;;;;;;16.64;46.13;102158.13;6336110;22;19909;-85
2022/04/02 10:55:36;;;;;;;;;;;;;;;16.74;45.10;102160.84;6302959;22;19919;-84
2022/04/02 15:05:45;;;;;;;;;;;;;;;16.75;47.46;102188.63;6302524;22;19910;-88
2022/04/02 15:08:36;;;;;;;;;;;;;;;16.81;47.57;102191.31;6299167;22;19962;-87
2022/04/02 15:11:04;;;;;;;;;;;;;;;16.79;47.82;102193.03;6265929;22;19915;-86
2022/04/02 15:13:32;;;;;;;;;;;;;;;16.78;48.04;102188.66;6292959;22;19911;-87
2022/04/02 15:16:02;;;;;;;;;;;;;;;16.79;47.93;102193.03;6293350;22;19911;-86
2022/04/02 15:18:30;;;;;;;;;;;;;;;16.80;47.89;102190.44;6241746;22;19934;-87
2022/04/02 15:21:09;;;;;;;;;;;;;;;16.84;47.95;102191.38;6268354;22;19907;-89
2022/04/02 15:23:58;;;;;;;;;;;;;;;16.83;48.29;102190.53;6297386;22;19911;-88
2022/04/02 15:29:10;;;;;;;;;;;;;;;16.85;47.22;102193.13;6317971;22;19919;-87
2022/04/02 15:31:54;;;;;;;;;;;;;;;16.83;47.99;102197.41;6297284;22;19918;-87
2022/04/02 15:34:19;;;;;;;;;;;;;;;16.82;47.30;102198.28;6306624;22;19899;-86
2022/04/02 15:37:04;;;;;;;;;;;;;;;16.83;47.52;102200.03;6300836;22;19907;-89
2022/04/02 15:39:33;;;;;;;;;;;;;;;16.82;47.37;102204.34;6302695;22;19907;-88
2022/04/02 15:42:00;;;;;;;;;;;;;;;16.84;47.24;102206.97;6302767;22;19914;-87
2022/04/02 15:44:30;;;;;;;;;;;;;;;16.84;46.68;102202.66;6301511;22;19891;-86
2022/04/02 15:46:56;;;;;;;;;;;;;;;16.84;46.72;102210.44;6300293;22;19914;-88
2022/04/02 15:49:32;;;;;;;;;;;;;;;16.87;46.89;102209.63;6301100;22;19938;-85
2022/04/02 15:52:00;;;;;;;;;;;;;;;16.89;46.85;102209.66;6297017;22;19953;-87
2022/04/02 15:54:26;;;;;;;;;;;;;;;16.88;46.83;102206.19;6297665;22;20243;-88
2022/04/02 15:57:04;;;;;;;;;;;;;;;16.88;47.33;102207.91;6300583;22;19895;-86
2022/04/02 15:59:30;;;;;;;;;;;;;;;16.86;46.90;102219.16;6299717;22;19981;-86
2022/04/02 16:01:55;;;;;;;;;;;;;;;16.87;47.02;102225.22;6298022;22;19914;-88
2022/04/02 16:04:21;;;;;;;;;;;;;;;16.88;47.01;102223.53;6270628;22;20302;-85
2022/04/02 16:06:46;;;;;;;;;;;;;;;16.86;46.74;102221.75;6301971;22;19907;-86
2022/04/02 16:09:18;;;;;;;;;;;;;;;16.85;46.60;102222.63;6300474;22;19907;-85
2022/04/02 16:11:44;;;;;;;;;;;;;;;16.85;46.80;102225.22;6301372;22;19915;-88
2022/04/02 16:14:14;;;;;;;;;;;;;;;16.86;46.66;102228.69;6302307;22;19906;-85
2022/04/02 16:16:48;;;;;;;;;;;;;;;16.83;47.17;102242.53;6307526;22;19935;-85
2022/04/02 16:19:33;;;;;;;;;;;;;;;16.85;46.55;102234.72;6303045;22;19964;-86
2022/04/02 16:21:59;;;;;;;;;;;;;;;16.84;46.55;102240.78;6301763;22;19914;-86
2022/04/02 16:24:25;;;;;;;;;;;;;;;16.84;46.56;102243.38;6302055;22;19907;-87
2022/04/02 16:26:51;;;;;;;;;;;;;;;16.81;46.79;102239.00;6297379;22;19955;-87
2022/04/02 16:29:17;;;;;;;;;;;;;;;16.83;46.86;102252.00;6295859;22;19922;-87
2022/04/02 16:31:43;;;;;;;;;;;;;;;16.80;47.55;102249.38;6272648;22;19959;-86
2022/04/02 16:34:08;;;;;;;;;;;;;;;16.81;46.90;102256.31;6297330;22;19907;-86
2022/04/02 16:36:35;;;;;;;;;;;;;;;16.80;46.89;102262.38;6298049;22;19933;-86
2022/04/02 16:39:02;;;;;;;;;;;;;;;16.81;46.32;102256.31;6298882;22;19914;-86
2022/04/02 16:41:38;;;;;;;;;;;;;;;16.80;46.72;102263.25;6301935;22;19965;-87
2022/04/02 16:44:12;;;;;;;;;;;;;;;16.75;46.97;102264.88;6306155;22;20278;-88
2022/04/02 16:46:38;;;;;;;;;;;;;;;16.73;47.00;102268.31;6303251;22;19914;-86
2022/04/02 16:49:03;;;;;;;;;;;;;;;16.75;46.20;102274.41;6272514;22;19911;-86
2022/04/02 16:51:32;;;;;;;;;;;;;;;16.75;46.82;102280.47;6275937;22;19934;-86
2022/04/02 16:54:06;;;;;;;;;;;;;;;16.72;47.37;102284.72;6278784;22;19933;-86
2022/04/02 16:56:32;;;;;;;;;;;;;;;16.67;47.36;102288.13;6300001;22;19914;-86
2022/04/02 16:58:57;;;;;;;;;;;;;;;16.65;46.89;102287.22;6306667;22;19934;-86
2022/04/02 17:01:23;;;;;;;;;;;;;;;16.63;47.35;102288.91;6305295;22;19911;-86
2022/04/02 17:03:51;;;;;;;;;;;;;;;16.61;47.13;102284.53;6305415;22;19887;-87
2022/04/02 17:06:30;;;;;;;;;;;;;;;16.60;46.73;102294.06;6305957;22;19907;-85
2022/04/02 17:08:56;;;;;;;;;;;;;;;16.63;47.25;102295.84;6306747;22;19915;-85
2022/04/02 17:17:33;;;;;;;;;;;;;;;16.58;48.10;102303.56;6332331;22;19922;-85
2022/04/02 17:20:00;;;;;;;;;;;;;;;16.64;47.72;102300.22;6302855;22;19907;-84
2022/04/02 17:48:46;;;;;;;;;;;;;;;16.55;47.99;102326.00;6241320;23;19946;-84
2022/04/02 18:00:36;;;;;;;;;;;;;;;16.58;50.16;102341.69;6323589;22;19919;-85
2022/04/02 18:14:42;;;;;;;;;;;;;;;16.52;51.21;102358.03;6319971;22;19919;-87
2022/04/02 18:17:09;;;;;;;;;;;;;;;16.53;51.42;102372.78;6309408;22;19899;-86
2022/04/02 18:19:35;;;;;;;;;;;;;;;16.51;51.18;102368.41;6306333;22;20312;-87
2022/04/02 18:22:00;;;;;;;;;;;;;;;16.49;50.90;102370.97;6306374;22;19939;-87
2022/04/02 18:33:04;;;;;;;;;;;;;;;16.47;50.55;102380.44;6322390;22;19919;-87
2022/04/02 18:35:30;;;;;;;;;;;;;;;16.48;50.61;102386.53;6306413;22;19951;-85
2022/04/02 18:37:56;;;;;;;;;;;;;;;16.46;50.89;102386.47;6279560;22;19958;-86
2022/04/02 18:43:26;;;;;;;;;;;;;;;16.45;50.50;102385.59;6334593;22;19906;-87
2022/04/02 18:45:51;;;;;;;;;;;;;;;16.45;50.58;102390.81;6304044;22;19914;-85
2022/04/02 18:51:45;;;;;;;;;;;;;;;16.45;50.28;102392.53;6336277;22;19906;-85
2022/04/02 18:57:14;;;;;;;;;;;;;;;16.43;49.70;102397.69;6333262;22;19922;-86
2022/04/02 19:02:44;;;;;;;;;;;;;;;16.43;50.41;102410.69;6334889;22;20006;-86
2022/04/02 19:10:28;;;;;;;;;;;;;;;16.50;50.45;102410.81;6266029;22;19941;-85
2022/04/02 19:12:53;;;;;;;;;;;;;;;16.52;50.20;102404.78;6309110;22;19915;-86
2022/04/02 19:15:19;;;;;;;;;;;;;;;16.53;50.26;102411.75;6282561;22;19922;-88
2022/04/02 19:17:45;;;;;;;;;;;;;;;16.55;49.98;102409.16;6303168;22;19926;-85
2022/04/02 19:20:10;;;;;;;;;;;;;;;16.57;50.00;102415.28;6305964;22;19911;-88
2022/04/02 19:22:36;;;;;;;;;;;;;;;16.59;49.84;102406.69;6306122;22;19898;-86
2022/04/02 19:25:02;;;;;;;;;;;;;;;16.60;49.69;102413.63;6328774;22;19907;-87
2022/04/02 19:27:28;;;;;;;;;;;;;;;16.63;49.56;102411.06;6327678;22;19907;-86
2022/04/02 19:29:53;;;;;;;;;;;;;;;16.64;49.44;102414.56;6300422;22;19911;-88
2022/04/02 19:32:19;;;;;;;;;;;;;;;16.65;49.30;102419.78;6299617;22;19907;-86
2022/04/02 19:34:44;;;;;;;;;;;;;;;16.65;49.28;102429.31;6326578;22;19911;-87
2022/04/02 19:37:10;;;;;;;;;;;;;;;16.67;49.24;102432.81;6296238;22;19982;-86
2022/04/02 19:39:35;;;;;;;;;;;;;;;16.70;49.08;102427.69;6274744;22;19934;-87
2022/04/02 19:42:01;;;;;;;;;;;;;;;16.70;49.10;102434.59;6300589;22;19911;-88
2022/04/02 19:44:26;;;;;;;;;;;;;;;16.67;49.37;102436.28;6276997;22;19911;-86